Time;durP1;ratioP1;P1;durP2;ratioP2;P2;SDS_P1;SDS_P2;PMS_P1;PMS_P2;Temp;Humidity;BMP_temperature;BMP_pressure;BME280_temperature;BME280_humidity;BME280_pressure;Samples;Min_cycle;Max_cycle;Signal;HPM_P1;HPM_P2
2022/04/19 00:00:27;;;;;;;10.32;5.90;;;;;;;;;;5004578;28;20136;-79
2022/04/19 00:02:53;;;;;;;11.48;6.57;;;;;;;;;;4985331;28;20054;-78
2022/04/19 00:05:19;;;;;;;12.80;7.57;;;;;;;;;;5001711;28;20078;-78
2022/04/19 00:07:45;;;;;;;11.98;6.60;;;;;;;;;;5003014;28;20072;-78
2022/04/19 00:10:12;;;;;;;13.90;7.03;;;;;;;;;;5003522;28;20040;-78
2022/04/19 00:12:38;;;;;;;13.18;7.07;;;;;;;;;;5001590;28;20095;-78
2022/04/19 00:15:05;;;;;;;14.15;6.88;;;;;;;;;;5002944;28;20035;-78
2022/04/19 00:17:32;;;;;;;15.63;7.60;;;;;;;;;;5003504;28;20045;-78
2022/04/19 00:19:57;;;;;;;16.13;7.93;;;;;;;;;;4985346;28;20034;-78
2022/04/19 00:22:23;;;;;;;14.73;8.13;;;;;;;;;;4986604;28;20055;-78
2022/04/19 00:24:49;;;;;;;13.60;7.50;;;;;;;;;;4987020;28;20525;-79
2022/04/19 00:27:16;;;;;;;12.90;7.43;;;;;;;;;;4997382;28;20072;-78
2022/04/19 00:29:42;;;;;;;17.00;7.68;;;;;;;;;;4997496;28;20057;-78
2022/04/19 00:32:09;;;;;;;11.32;7.93;;;;;;;;;;4997392;28;20037;-78
2022/04/19 00:34:35;;;;;;;16.15;7.85;;;;;;;;;;4997458;28;20529;-79
2022/04/19 00:37:01;;;;;;;12.35;8.00;;;;;;;;;;4997551;28;20085;-78
2022/04/19 00:39:27;;;;;;;14.38;7.60;;;;;;;;;;4997365;28;20092;-79
2022/04/19 00:41:55;;;;;;;13.55;7.55;;;;;;;;;;4997033;28;20061;-79
2022/04/19 00:44:23;;;;;;;14.30;7.85;;;;;;;;;;4997248;28;20080;-78
2022/04/19 00:46:49;;;;;;;11.73;7.82;;;;;;;;;;4996887;28;20050;-78
2022/04/19 00:49:16;;;;;;;17.35;9.15;;;;;;;;;;4997392;28;20037;-78
2022/04/19 00:51:42;;;;;;;18.77;9.00;;;;;;;;;;4993992;28;20034;-79
2022/04/19 00:54:08;;;;;;;17.42;9.20;;;;;;;;;;4985327;28;20264;-78
2022/04/19 00:56:34;;;;;;;20.13;8.43;;;;;;;;;;4986493;28;20128;-78
2022/04/19 00:59:00;;;;;;;13.70;8.07;;;;;;;;;;4986568;28;20240;-79
2022/04/19 01:01:26;;;;;;;19.23;8.43;;;;;;;;;;5003190;28;20049;-79
2022/04/19 01:03:52;;;;;;;18.25;7.97;;;;;;;;;;4991501;28;20044;-79
2022/04/19 01:06:18;;;;;;;14.77;8.05;;;;;;;;;;5005721;28;20045;-78
2022/04/19 01:08:44;;;;;;;14.07;8.98;;;;;;;;;;4990712;28;20045;-79
2022/04/19 01:13:54;;;;;;;12.63;7.72;;;;;;;;;;5005784;28;20045;-78
2022/04/19 01:16:20;;;;;;;14.60;8.10;;;;;;;;;;4989046;28;20034;-79
2022/04/19 01:18:46;;;;;;;13.52;7.68;;;;;;;;;;4990524;28;20043;-78
2022/04/19 01:21:12;;;;;;;13.32;8.13;;;;;;;;;;4987958;28;20037;-78
2022/04/19 01:23:41;;;;;;;13.50;7.72;;;;;;;;;;4997103;28;20116;-79
2022/04/19 01:26:07;;;;;;;13.57;7.88;;;;;;;;;;4997141;28;20034;-78
2022/04/19 01:28:33;;;;;;;14.55;7.22;;;;;;;;;;4981041;28;20073;-79
2022/04/19 01:30:59;;;;;;;13.18;7.10;;;;;;;;;;4980843;28;20077;-79
2022/04/19 01:33:25;;;;;;;11.80;7.32;;;;;;;;;;4980913;28;20045;-79
2022/04/19 01:35:52;;;;;;;16.80;7.63;;;;;;;;;;4980909;28;20538;-79
2022/04/19 01:38:18;;;;;;;14.50;7.43;;;;;;;;;;4980815;28;20046;-79
2022/04/19 01:40:44;;;;;;;13.10;7.13;;;;;;;;;;4996980;28;20577;-80
2022/04/19 01:43:10;;;;;;;16.05;7.50;;;;;;;;;;4997005;28;20104;-79
2022/04/19 01:45:37;;;;;;;14.73;8.25;;;;;;;;;;4980419;28;20141;-79
2022/04/19 01:48:03;;;;;;;19.08;8.60;;;;;;;;;;4997138;28;20044;-79
2022/04/19 01:50:29;;;;;;;11.40;7.00;;;;;;;;;;4980636;28;20483;-79
2022/04/19 01:52:57;;;;;;;13.85;6.72;;;;;;;;;;4996809;28;20077;-78
2022/04/19 01:55:23;;;;;;;14.10;7.30;;;;;;;;;;4980506;28;20041;-78
2022/04/19 01:57:51;;;;;;;16.27;7.38;;;;;;;;;;4980632;28;20042;-79
2022/04/19 02:00:18;;;;;;;11.68;7.50;;;;;;;;;;4980227;28;20550;-79
2022/04/19 02:02:45;;;;;;;12.32;7.32;;;;;;;;;;4980074;28;20099;-78
2022/04/19 02:05:11;;;;;;;13.23;7.65;;;;;;;;;;4980380;28;20061;-78
2022/04/19 02:07:38;;;;;;;10.20;6.63;;;;;;;;;;4980448;28;20041;-78
2022/04/19 02:10:04;;;;;;;13.15;7.57;;;;;;;;;;4996477;28;20406;-78
2022/04/19 02:12:31;;;;;;;12.20;6.95;;;;;;;;;;4979264;28;20124;-78
2022/04/19 02:14:57;;;;;;;11.02;6.75;;;;;;;;;;4996282;28;20045;-78
2022/04/19 02:17:23;;;;;;;15.80;7.45;;;;;;;;;;4979947;28;20386;-78
2022/04/19 02:19:50;;;;;;;13.70;7.25;;;;;;;;;;4979932;28;20048;-78
2022/04/19 02:22:17;;;;;;;14.10;7.18;;;;;;;;;;4996445;28;20513;-78
2022/04/19 02:24:43;;;;;;;13.10;7.57;;;;;;;;;;4979908;28;20457;-78
2022/04/19 02:27:09;;;;;;;15.43;7.07;;;;;;;;;;4979867;28;20038;-78
2022/04/19 02:29:35;;;;;;;16.20;6.95;;;;;;;;;;4979827;28;20042;-78
2022/04/19 02:32:01;;;;;;;10.70;6.43;;;;;;;;;;4979839;28;20041;-78
2022/04/19 02:34:27;;;;;;;12.40;6.40;;;;;;;;;;4995818;28;20077;-78
2022/04/19 02:36:53;;;;;;;13.95;7.60;;;;;;;;;;4979863;28;20049;-78
2022/04/19 02:39:20;;;;;;;13.25;6.35;;;;;;;;;;4995764;28;20560;-77
2022/04/19 02:41:46;;;;;;;12.18;7.20;;;;;;;;;;4979359;28;20049;-77
2022/04/19 02:44:13;;;;;;;12.30;6.43;;;;;;;;;;4979290;28;20042;-79
2022/04/19 02:46:39;;;;;;;12.43;6.97;;;;;;;;;;4979366;28;20050;-79
2022/04/19 02:49:05;;;;;;;12.25;7.22;;;;;;;;;;4979516;28;20052;-78
2022/04/19 02:51:32;;;;;;;14.40;6.68;;;;;;;;;;4979584;28;20048;-77
2022/04/19 02:53:58;;;;;;;11.05;6.63;;;;;;;;;;4995580;28;20038;-78
2022/04/19 02:56:24;;;;;;;11.85;6.47;;;;;;;;;;4979539;28;20134;-78
2022/04/19 02:58:50;;;;;;;14.15;6.90;;;;;;;;;;4995877;28;20042;-78
2022/04/19 03:01:16;;;;;;;9.63;5.85;;;;;;;;;;4995457;28;20052;-78
2022/04/19 03:03:43;;;;;;;12.38;6.95;;;;;;;;;;4995313;28;20125;-78
2022/04/19 03:06:09;;;;;;;10.68;6.32;;;;;;;;;;4995344;28;20421;-78
2022/04/19 03:08:35;;;;;;;13.88;6.88;;;;;;;;;;4979365;28;20478;-78
2022/04/19 03:11:01;;;;;;;12.40;7.05;;;;;;;;;;4979034;28;20100;-78
2022/04/19 03:13:27;;;;;;;14.77;6.72;;;;;;;;;;4979127;28;20129;-78
2022/04/19 03:15:54;;;;;;;12.60;7.13;;;;;;;;;;4995164;28;20042;-77
2022/04/19 03:18:20;;;;;;;14.13;6.63;;;;;;;;;;4979112;28;20044;-78
2022/04/19 03:20:47;;;;;;;12.75;6.43;;;;;;;;;;4995426;28;20050;-78
2022/04/19 03:28:45;;;;;;;15.75;7.55;;;;;;;;;;4994960;28;20406;-79
2022/04/19 03:31:12;;;;;;;12.30;6.03;;;;;;;;;;4978967;28;20042;-78
2022/04/19 03:33:39;;;;;;;10.48;6.22;;;;;;;;;;4978552;28;20037;-78
2022/04/19 03:36:05;;;;;;;9.43;6.28;;;;;;;;;;4978873;28;20046;-79
2022/04/19 03:38:31;;;;;;;13.48;6.05;;;;;;;;;;4978795;28;20049;-79
2022/04/19 03:40:57;;;;;;;17.52;6.57;;;;;;;;;;4978681;28;20034;-79
2022/04/19 03:43:23;;;;;;;13.50;6.93;;;;;;;;;;4978557;28;20038;-79
2022/04/19 03:45:49;;;;;;;12.93;6.15;;;;;;;;;;4978238;28;20080;-79
2022/04/19 03:48:15;;;;;;;10.63;6.13;;;;;;;;;;4994643;28;20049;-78
2022/04/19 03:50:42;;;;;;;10.30;5.88;;;;;;;;;;4995120;28;20085;-78
2022/04/19 03:53:08;;;;;;;12.85;7.45;;;;;;;;;;4994545;28;20045;-77
2022/04/19 03:55:34;;;;;;;11.55;6.90;;;;;;;;;;4978459;28;20508;-78
2022/04/19 03:58:02;;;;;;;13.50;6.63;;;;;;;;;;4994676;28;20045;-78
2022/04/19 04:00:28;;;;;;;11.63;7.03;;;;;;;;;;4978261;28;20584;-78
2022/04/19 04:02:55;;;;;;;13.77;7.18;;;;;;;;;;4978407;28;20041;-78
2022/04/19 04:05:24;;;;;;;10.27;6.65;;;;;;;;;;4994372;28;20045;-78
2022/04/19 04:07:50;;;;;;;12.93;6.78;;;;;;;;;;4994309;28;20042;-78
2022/04/19 04:10:16;;;;;;;11.00;6.45;;;;;;;;;;4978431;28;20040;-78
2022/04/19 04:12:42;;;;;;;13.57;6.93;;;;;;;;;;4994288;28;20093;-77
2022/04/19 04:15:08;;;;;;;11.20;6.20;;;;;;;;;;4994501;28;20042;-78
2022/04/19 04:17:34;;;;;;;9.82;6.57;;;;;;;;;;4978168;28;20402;-80
2022/04/19 04:20:00;;;;;;;13.63;7.32;;;;;;;;;;4994026;28;20038;-78
2022/04/19 04:22:26;;;;;;;10.93;6.65;;;;;;;;;;4978052;28;20049;-78
2022/04/19 04:24:53;;;;;;;12.93;6.50;;;;;;;;;;4993926;28;20046;-78
2022/04/19 04:27:18;;;;;;;12.30;6.72;;;;;;;;;;4978132;28;20064;-78
2022/04/19 04:29:45;;;;;;;11.23;6.38;;;;;;;;;;4994352;28;20037;-78
2022/04/19 04:32:11;;;;;;;9.35;5.82;;;;;;;;;;4993910;28;20045;-79
2022/04/19 04:34:37;;;;;;;14.30;6.30;;;;;;;;;;4977870;28;20188;-78
2022/04/19 04:37:03;;;;;;;13.35;6.88;;;;;;;;;;4981046;28;20541;-78
2022/04/19 04:39:29;;;;;;;12.30;7.65;;;;;;;;;;4998233;28;20400;-77
2022/04/19 04:41:55;;;;;;;12.55;7.07;;;;;;;;;;4998198;28;20057;-78
2022/04/19 04:44:21;;;;;;;14.50;6.32;;;;;;;;;;4981809;28;20042;-78
2022/04/19 04:49:37;;;;;;;10.20;5.78;;;;;;;;;;4998093;28;20034;-77
2022/04/19 04:52:07;;;;;;;10.50;5.65;;;;;;;;;;4981477;28;20034;-78
2022/04/19 04:54:34;;;;;;;11.53;6.53;;;;;;;;;;4997186;28;20133;-77
2022/04/19 04:57:00;;;;;;;13.32;6.38;;;;;;;;;;4981556;28;20046;-78
2022/04/19 04:59:26;;;;;;;10.80;6.20;;;;;;;;;;4997682;28;20049;-78
2022/04/19 05:01:52;;;;;;;17.52;7.15;;;;;;;;;;4981674;28;20246;-78
2022/04/19 05:04:18;;;;;;;11.40;6.47;;;;;;;;;;4981393;28;20088;-77
2022/04/19 05:06:44;;;;;;;16.30;7.95;;;;;;;;;;4997492;28;20452;-78
2022/04/19 05:09:10;;;;;;;13.13;6.57;;;;;;;;;;4981434;28;20042;-77
2022/04/19 05:11:37;;;;;;;10.98;6.70;;;;;;;;;;4981420;28;20176;-77
2022/04/19 05:14:03;;;;;;;12.07;6.68;;;;;;;;;;4997617;28;20056;-77
2022/04/19 05:16:28;;;;;;;13.23;5.80;;;;;;;;;;4997232;28;20136;-78
2022/04/19 05:18:54;;;;;;;13.40;6.65;;;;;;;;;;4997288;28;20471;-78
2022/04/19 05:21:20;;;;;;;11.48;6.07;;;;;;;;;;4997330;28;20038;-79
2022/04/19 05:23:46;;;;;;;13.20;7.38;;;;;;;;;;4980949;28;20041;-78
2022/04/19 05:26:12;;;;;;;13.10;6.57;;;;;;;;;;4981343;28;20042;-79
2022/04/19 05:28:38;;;;;;;9.45;5.82;;;;;;;;;;4997397;28;20048;-79
2022/04/19 05:31:04;;;;;;;15.82;7.28;;;;;;;;;;4981011;28;20049;-79
2022/04/19 05:33:30;;;;;;;13.10;7.10;;;;;;;;;;4980878;28;20065;-79
2022/04/19 05:35:56;;;;;;;10.82;6.35;;;;;;;;;;4997028;28;20042;-79
2022/04/19 05:38:22;;;;;;;15.25;6.82;;;;;;;;;;4981103;28;20549;-79
2022/04/19 05:40:48;;;;;;;13.38;6.60;;;;;;;;;;4997565;28;20128;-78
2022/04/19 05:43:14;;;;;;;20.42;8.07;;;;;;;;;;4998073;28;20045;-78
2022/04/19 05:45:40;;;;;;;11.70;6.85;;;;;;;;;;4976954;28;20586;-80
2022/04/19 05:48:07;;;;;;;11.60;6.35;;;;;;;;;;4975980;28;20038;-79
2022/04/19 05:50:33;;;;;;;12.35;6.82;;;;;;;;;;4977805;28;20038;-79
2022/04/19 05:52:58;;;;;;;15.38;8.40;;;;;;;;;;4977082;28;20047;-78
2022/04/19 05:55:24;;;;;;;15.05;7.43;;;;;;;;;;4993742;28;20109;-79
2022/04/19 05:57:51;;;;;;;10.85;6.63;;;;;;;;;;4993240;28;20045;-79
2022/04/19 06:00:17;;;;;;;14.98;6.95;;;;;;;;;;4993293;28;20088;-79
2022/04/19 06:05:27;;;;;;;16.80;6.90;;;;;;;;;;5000512;28;20460;-79
2022/04/19 06:07:54;;;;;;;12.82;7.65;;;;;;;;;;4987347;28;20065;-80
2022/04/19 06:10:22;;;;;;;12.18;6.25;;;;;;;;;;4983960;28;20096;-79
2022/04/19 06:12:48;;;;;;;16.17;7.25;;;;;;;;;;4985534;28;20049;-80
2022/04/19 06:15:14;;;;;;;11.75;6.50;;;;;;;;;;4985270;28;20034;-79
2022/04/19 06:17:41;;;;;;;15.88;6.85;;;;;;;;;;4983863;28;20046;-79
2022/04/19 06:20:07;;;;;;;15.45;7.18;;;;;;;;;;4985360;28;20088;-80
2022/04/19 06:22:33;;;;;;;16.55;7.60;;;;;;;;;;4985185;28;20038;-80
2022/04/19 06:25:01;;;;;;;13.65;6.88;;;;;;;;;;4983428;28;20034;-80
2022/04/19 06:27:27;;;;;;;11.40;7.10;;;;;;;;;;4984060;28;20487;-80
2022/04/19 06:29:56;;;;;;;20.85;8.27;;;;;;;;;;4984769;28;20037;-80
2022/04/19 06:32:22;;;;;;;14.63;6.95;;;;;;;;;;5002026;28;20048;-79
2022/04/19 06:34:48;;;;;;;12.80;7.40;;;;;;;;;;5000122;28;20037;-79
2022/04/19 06:37:15;;;;;;;12.55;6.82;;;;;;;;;;5002219;28;20460;-79
2022/04/19 06:39:41;;;;;;;12.02;6.68;;;;;;;;;;4984214;28;20433;-80
2022/04/19 06:42:07;;;;;;;12.68;6.78;;;;;;;;;;4985839;28;20041;-80
2022/04/19 06:44:34;;;;;;;12.57;7.57;;;;;;;;;;5000936;28;20050;-79
2022/04/19 06:47:00;;;;;;;10.55;6.63;;;;;;;;;;4968280;28;21083;-79
2022/04/19 06:49:26;;;;;;;11.20;6.95;;;;;;;;;;4985151;28;20050;-79
2022/04/19 06:51:53;;;;;;;11.00;6.18;;;;;;;;;;4984457;28;20030;-81
2022/04/19 06:54:19;;;;;;;13.18;7.30;;;;;;;;;;4967920;28;20041;-80
2022/04/19 06:56:45;;;;;;;13.35;6.65;;;;;;;;;;4967742;28;20038;-81
2022/04/19 06:59:11;;;;;;;11.40;9.27;;;;;;;;;;4985848;28;20117;-81
2022/04/19 07:01:40;;;;;;;11.75;9.38;;;;;;;;;;4969295;28;20053;-79
2022/04/19 07:04:06;;;;;;;9.65;6.40;;;;;;;;;;4970918;28;20034;-79
2022/04/19 07:06:32;;;;;;;10.77;8.50;;;;;;;;;;4982238;28;20074;-81
2022/04/19 07:08:58;;;;;;;9.30;8.23;;;;;;;;;;4982565;28;20042;-80
2022/04/19 07:11:25;;;;;;;10.18;8.57;;;;;;;;;;4965935;28;20038;-81
2022/04/19 07:13:51;;;;;;;9.93;8.07;;;;;;;;;;4968954;28;20096;-82
2022/04/19 07:16:17;;;;;;;11.43;8.77;;;;;;;;;;4984253;28;20050;-80
2022/04/19 07:18:43;;;;;;;13.30;8.63;;;;;;;;;;4985068;28;20053;-80
2022/04/19 07:26:38;;;;;;;10.38;8.13;;;;;;;;;;4984330;28;20046;-83
2022/04/19 07:29:04;;;;;;;9.50;8.07;;;;;;;;;;4986258;28;20102;-79
2022/04/19 07:31:31;;;;;;;10.20;7.60;;;;;;;;;;4985096;28;20045;-80
2022/04/19 07:33:57;;;;;;;9.20;7.28;;;;;;;;;;4966931;28;20040;-81
2022/04/19 07:36:23;;;;;;;10.82;7.75;;;;;;;;;;4966647;28;20384;-81
2022/04/19 07:38:49;;;;;;;8.18;7.30;;;;;;;;;;4984098;28;20042;-80
2022/04/19 07:41:17;;;;;;;9.48;7.22;;;;;;;;;;4965777;28;20111;-81
2022/04/19 07:43:44;;;;;;;7.63;6.80;;;;;;;;;;4966624;28;20045;-82
2022/04/19 07:46:10;;;;;;;7.55;6.75;;;;;;;;;;4979770;28;20119;-80
2022/04/19 07:48:38;;;;;;;10.15;7.15;;;;;;;;;;4986618;28;20100;-79
2022/04/19 07:51:06;;;;;;;10.13;7.03;;;;;;;;;;4986592;28;20046;-81
2022/04/19 07:53:32;;;;;;;9.52;7.03;;;;;;;;;;5003417;28;20049;-80
2022/04/19 07:55:58;;;;;;;7.18;6.13;;;;;;;;;;5004120;28;20041;-82
2022/04/19 07:58:25;;;;;;;8.30;6.93;;;;;;;;;;4983689;28;20111;-82
2022/04/19 08:00:51;;;;;;;13.32;9.40;;;;;;;;;;5002444;28;20482;-80
2022/04/19 08:03:17;;;;;;;8.18;6.45;;;;;;;;;;4984749;28;20038;-81
2022/04/19 08:05:43;;;;;;;6.13;5.20;;;;;;;;;;4983628;28;20037;-82
2022/04/19 08:08:09;;;;;;;8.95;6.40;;;;;;;;;;4993521;28;20041;-80
2022/04/19 08:10:35;;;;;;;11.05;5.85;;;;;;;;;;5001302;28;20398;-80
2022/04/19 08:13:01;;;;;;;7.97;6.57;;;;;;;;;;5007105;28;20053;-82
2022/04/19 08:15:27;;;;;;;5.78;5.07;;;;;;;;;;4987613;28;20051;-81
2022/04/19 08:17:53;;;;;;;6.50;5.35;;;;;;;;;;5000840;28;20042;-81
2022/04/19 08:20:19;;;;;;;6.78;4.93;;;;;;;;;;5005375;28;20041;-81
2022/04/19 08:22:45;;;;;;;5.38;4.18;;;;;;;;;;4987085;28;20076;-83
2022/04/19 08:25:11;;;;;;;6.13;4.13;;;;;;;;;;4986203;28;20041;-80
2022/04/19 08:27:39;;;;;;;5.00;3.88;;;;;;;;;;5003404;28;20041;-80
2022/04/19 08:30:08;;;;;;;4.65;3.90;;;;;;;;;;4986075;28;20100;-81
2022/04/19 08:32:34;;;;;;;4.82;3.70;;;;;;;;;;5000689;28;20064;-80
2022/04/19 08:34:59;;;;;;;4.75;3.60;;;;;;;;;;4987170;28;20076;-78
2022/04/19 08:37:37;;;;;;;5.07;3.40;;;;;;;;;;5003558;28;20179;-84
2022/04/19 08:40:07;;;;;;;4.85;3.50;;;;;;;;;;5004188;28;20038;-82
2022/04/19 08:42:33;;;;;;;3.70;2.92;;;;;;;;;;4986834;28;20097;-79
2022/04/19 08:45:02;;;;;;;3.72;2.63;;;;;;;;;;5003661;28;20498;-80
2022/04/19 08:47:28;;;;;;;3.00;2.55;;;;;;;;;;4988428;28;20038;-83
2022/04/19 08:49:58;;;;;;;3.95;2.42;;;;;;;;;;4990245;28;20401;-77
2022/04/19 08:52:24;;;;;;;3.22;2.80;;;;;;;;;;4990260;28;20042;-83
2022/04/19 08:57:35;;;;;;;2.92;2.55;;;;;;;;;;5002983;28;20498;-80
2022/04/19 09:00:05;;;;;;;2.60;1.73;;;;;;;;;;4991424;28;20436;-80
2022/04/19 09:02:32;;;;;;;2.42;1.63;;;;;;;;;;5007853;28;20056;-81
2022/04/19 09:05:17;;;;;;;2.75;2.08;;;;;;;;;;4988767;28;20672;-80
2022/04/19 09:07:44;;;;;;;4.28;2.38;;;;;;;;;;4990028;28;20089;-83
2022/04/19 09:10:16;;;;;;;2.33;1.88;;;;;;;;;;5003658;28;20044;-83
2022/04/19 09:13:01;;;;;;;2.70;2.00;;;;;;;;;;4986276;28;20034;-81
2022/04/19 09:15:34;;;;;;;3.30;2.58;;;;;;;;;;4999848;28;20045;-79
2022/04/19 09:18:00;;;;;;;2.30;2.10;;;;;;;;;;4989954;28;20095;-81
2022/04/19 09:20:27;;;;;;;4.63;2.58;;;;;;;;;;5005748;28;20052;-81
2022/04/19 09:23:04;;;;;;;3.40;2.70;;;;;;;;;;4994239;28;20048;-81
2022/04/19 09:25:30;;;;;;;3.60;2.67;;;;;;;;;;4992033;28;20044;-80
2022/04/19 09:27:57;;;;;;;4.07;2.55;;;;;;;;;;4992400;28;20096;-82
2022/04/19 09:30:30;;;;;;;4.20;2.70;;;;;;;;;;4989545;28;20029;-83
2022/04/19 09:33:04;;;;;;;3.30;2.50;;;;;;;;;;5006115;28;20037;-82
2022/04/19 09:35:30;;;;;;;4.80;3.38;;;;;;;;;;4994412;28;20033;-80
2022/04/19 09:37:56;;;;;;;4.55;2.90;;;;;;;;;;5007793;28;20060;-81
2022/04/19 09:40:33;;;;;;;2.85;2.58;;;;;;;;;;4991176;28;20047;-79
2022/04/19 09:43:10;;;;;;;5.53;2.45;;;;;;;;;;5001924;28;20033;-82
2022/04/19 09:45:46;;;;;;;2.08;1.67;;;;;;;;;;4993892;28;20376;-80
2022/04/19 09:48:16;;;;;;;7.55;1.90;;;;;;;;;;4991446;28;20494;-83
2022/04/19 09:50:48;;;;;;;3.08;2.08;;;;;;;;;;5008341;28;20045;-82
2022/04/19 09:53:18;;;;;;;4.45;2.60;;;;;;;;;;5007165;28;20402;-81
2022/04/19 09:55:51;;;;;;;2.83;1.90;;;;;;;;;;5006298;28;20107;-80
2022/04/19 09:58:17;;;;;;;5.00;2.05;;;;;;;;;;5007208;28;20046;-80
2022/04/19 10:00:47;;;;;;;4.00;3.58;;;;;;;;;;5007437;28;20037;-79
2022/04/19 10:08:48;;;;;;;2.85;1.70;;;;;;;;;;5005015;28;20078;-79
2022/04/19 10:11:15;;;;;;;3.20;2.00;;;;;;;;;;4984029;28;20037;-83
2022/04/19 10:13:41;;;;;;;4.78;2.53;;;;;;;;;;4991849;28;20385;-80
2022/04/19 10:16:12;;;;;;;2.95;2.55;;;;;;;;;;4990866;28;20133;-80
2022/04/19 10:18:38;;;;;;;2.53;2.20;;;;;;;;;;5007141;28;20481;-78
2022/04/19 10:21:06;;;;;;;4.70;2.50;;;;;;;;;;5006811;28;20050;-80
2022/04/19 10:23:36;;;;;;;6.75;4.00;;;;;;;;;;4990330;28;20077;-78
2022/04/19 10:26:12;;;;;;;4.10;2.40;;;;;;;;;;4990374;28;20538;-80
2022/04/19 10:28:38;;;;;;;3.88;2.83;;;;;;;;;;5006176;28;20056;-80
2022/04/19 10:31:05;;;;;;;5.72;2.42;;;;;;;;;;5008751;28;20030;-82
2022/04/19 10:33:51;;;;;;;3.50;2.63;;;;;;;;;;5005826;28;20041;-81
2022/04/19 10:36:18;;;;;;;3.22;2.70;;;;;;;;;;5007127;28;20389;-79
2022/04/19 10:38:45;;;;;;;5.50;2.20;;;;;;;;;;4989805;28;20045;-81
2022/04/19 10:41:12;;;;;;;3.22;2.35;;;;;;;;;;4991165;28;20489;-80
2022/04/19 10:43:38;;;;;;;3.85;2.67;;;;;;;;;;4989624;28;20975;-79
2022/04/19 10:46:20;;;;;;;3.50;2.63;;;;;;;;;;4988872;28;20410;-80
2022/04/19 10:49:04;;;;;;;5.55;2.72;;;;;;;;;;5005890;28;20066;-81
2022/04/19 10:51:30;;;;;;;5.38;2.50;;;;;;;;;;4989722;28;20446;-80
2022/04/19 10:53:56;;;;;;;3.00;2.10;;;;;;;;;;5005736;28;20040;-81
2022/04/19 10:56:22;;;;;;;3.13;2.20;;;;;;;;;;4990933;28;20503;-82
2022/04/19 10:58:48;;;;;;;3.40;2.40;;;;;;;;;;5006502;28;20048;-79
2022/04/19 11:01:31;;;;;;;3.58;2.72;;;;;;;;;;4990124;28;20402;-79
2022/04/19 11:03:57;;;;;;;3.22;2.20;;;;;;;;;;5006878;28;20034;-79
2022/04/19 11:06:31;;;;;;;3.17;2.17;;;;;;;;;;4988570;28;20044;-80
2022/04/19 11:09:16;;;;;;;4.50;2.83;;;;;;;;;;4989753;28;20030;-79
2022/04/19 11:11:53;;;;;;;4.63;2.10;;;;;;;;;;4998781;28;20045;-79
2022/04/19 11:14:28;;;;;;;3.85;2.13;;;;;;;;;;5005771;28;20041;-83
2022/04/19 11:17:14;;;;;;;3.08;2.05;;;;;;;;;;5006278;28;20129;-82
2022/04/19 11:19:51;;;;;;;5.38;2.63;;;;;;;;;;5005531;28;20041;-82
2022/04/19 11:22:29;;;;;;;3.50;2.70;;;;;;;;;;5006989;28;20050;-83
2022/04/19 11:25:03;;;;;;;4.07;2.15;;;;;;;;;;5004907;28;20398;-80
2022/04/19 11:27:52;;;;;;;5.20;2.17;;;;;;;;;;4988392;28;20045;-80
2022/04/19 11:30:18;;;;;;;2.53;2.05;;;;;;;;;;4960653;28;20065;-80
2022/04/19 11:32:49;;;;;;;3.55;2.40;;;;;;;;;;4985174;28;20445;-79
2022/04/19 11:35:16;;;;;;;3.72;2.28;;;;;;;;;;4985558;28;20079;-80
2022/04/19 11:37:43;;;;;;;3.85;2.10;;;;;;;;;;5002339;28;20638;-83
2022/04/19 11:48:45;;;;;;;3.20;2.13;;;;;;;;;;5001102;28;20053;-78
2022/04/19 11:51:12;;;;;;;4.38;2.13;;;;;;;;;;4984683;28;20091;-80
2022/04/19 11:53:38;;;;;;;2.25;2.00;;;;;;;;;;4985534;28;20128;-81
2022/04/19 11:56:06;;;;;;;3.17;1.55;;;;;;;;;;4986150;28;20048;-78
2022/04/19 11:58:32;;;;;;;2.83;1.52;;;;;;;;;;4984368;28;20418;-78
2022/04/19 12:01:04;;;;;;;2.78;1.88;;;;;;;;;;5000694;28;20049;-79
2022/04/19 12:03:30;;;;;;;3.15;2.08;;;;;;;;;;4991908;28;20103;-83
2022/04/19 12:06:04;;;;;;;4.20;2.10;;;;;;;;;;4985559;28;20567;-82
2022/04/19 12:08:34;;;;;;;2.58;2.00;;;;;;;;;;5002884;28;20041;-81
2022/04/19 12:11:03;;;;;;;2.23;1.90;;;;;;;;;;4987579;28;20096;-79
2022/04/19 12:13:29;;;;;;;4.90;1.80;;;;;;;;;;5003115;28;20781;-82
2022/04/19 12:15:55;;;;;;;3.13;2.00;;;;;;;;;;4988245;28;20042;-80
2022/04/19 12:18:31;;;;;;;3.78;1.90;;;;;;;;;;5013875;28;20041;-82
2022/04/19 12:20:58;;;;;;;3.00;2.25;;;;;;;;;;5015166;28;20045;-84
2022/04/19 12:23:24;;;;;;;3.95;2.25;;;;;;;;;;4998297;28;20042;-82
2022/04/19 12:25:59;;;;;;;4.32;2.63;;;;;;;;;;4987055;28;20100;-81
2022/04/19 12:28:36;;;;;;;4.53;2.85;;;;;;;;;;4979028;28;20056;-82
2022/04/19 12:31:02;;;;;;;3.28;2.65;;;;;;;;;;4979496;28;20082;-82
2022/04/19 12:33:28;;;;;;;2.92;2.30;;;;;;;;;;4979025;28;20061;-78
2022/04/19 12:35:54;;;;;;;4.63;2.90;;;;;;;;;;4980306;28;20047;-82
2022/04/19 12:38:28;;;;;;;3.60;2.80;;;;;;;;;;4979871;28;20510;-82
2022/04/19 12:40:54;;;;;;;3.25;2.08;;;;;;;;;;4995047;28;20042;-80
2022/04/19 12:43:20;;;;;;;3.53;2.10;;;;;;;;;;4978717;28;20410;-83
2022/04/19 12:45:48;;;;;;;5.82;2.20;;;;;;;;;;4988367;28;20141;-79
2022/04/19 12:48:21;;;;;;;3.90;2.00;;;;;;;;;;4989078;28;20046;-79
2022/04/19 12:50:47;;;;;;;5.90;2.20;;;;;;;;;;4972100;28;20129;-80
2022/04/19 12:53:25;;;;;;;3.33;2.38;;;;;;;;;;4973089;28;20050;-81
2022/04/19 12:55:51;;;;;;;2.85;2.22;;;;;;;;;;4972214;28;20048;-80
2022/04/19 12:58:17;;;;;;;2.47;1.83;;;;;;;;;;4992921;28;20132;-83
2022/04/19 13:00:43;;;;;;;2.70;2.17;;;;;;;;;;4976970;28;20046;-83
2022/04/19 13:03:09;;;;;;;5.15;2.10;;;;;;;;;;4976263;28;20046;-79
2022/04/19 13:13:48;;;;;;;4.65;2.40;;;;;;;;;;4993903;28;20050;-82
2022/04/19 13:16:14;;;;;;;3.30;1.95;;;;;;;;;;4977899;28;20112;-81
2022/04/19 13:18:40;;;;;;;3.42;3.10;;;;;;;;;;4980766;28;20406;-84
2022/04/19 13:21:07;;;;;;;3.95;2.28;;;;;;;;;;4978584;28;20467;-80
2022/04/19 13:23:33;;;;;;;3.83;2.05;;;;;;;;;;4979051;28;20042;-82
2022/04/19 13:25:59;;;;;;;2.05;1.80;;;;;;;;;;4978885;28;20602;-82
2022/04/19 13:28:26;;;;;;;3.05;2.50;;;;;;;;;;4978972;28;20430;-79
2022/04/19 13:30:55;;;;;;;2.42;2.13;;;;;;;;;;4978968;28;20526;-79
2022/04/19 13:33:21;;;;;;;4.43;3.05;;;;;;;;;;4978421;28;20042;-84
2022/04/19 13:35:47;;;;;;;2.75;2.00;;;;;;;;;;4962524;28;20449;-80
2022/04/19 13:38:26;;;;;;;4.93;2.40;;;;;;;;;;4978277;28;20046;-78
2022/04/19 13:40:52;;;;;;;2.63;2.17;;;;;;;;;;4978373;28;20053;-81
2022/04/19 13:43:18;;;;;;;3.45;2.05;;;;;;;;;;4994718;28;20050;-80
2022/04/19 13:45:45;;;;;;;3.40;2.03;;;;;;;;;;4994805;28;20058;-81
2022/04/19 13:48:11;;;;;;;2.78;2.00;;;;;;;;;;4978355;28;20030;-82
2022/04/19 13:50:37;;;;;;;3.15;2.22;;;;;;;;;;4979150;28;20042;-82
2022/04/19 13:53:03;;;;;;;4.15;2.60;;;;;;;;;;4978144;28;20045;-82
2022/04/19 13:55:29;;;;;;;6.07;2.90;;;;;;;;;;4994032;28;20405;-86
2022/04/19 13:57:55;;;;;;;4.20;2.90;;;;;;;;;;4978346;28;20125;-81
2022/04/19 14:00:23;;;;;;;6.13;3.38;;;;;;;;;;4978519;28;20042;-80
2022/04/19 14:02:49;;;;;;;3.97;3.10;;;;;;;;;;4977765;28;20380;-79
2022/04/19 14:05:16;;;;;;;3.20;2.88;;;;;;;;;;4977599;28;20042;-82
2022/04/19 14:07:42;;;;;;;3.72;3.05;;;;;;;;;;4977973;28;20043;-81
2022/04/19 14:10:09;;;;;;;4.95;2.70;;;;;;;;;;4977375;28;20186;-82
2022/04/19 14:12:35;;;;;;;6.82;3.30;;;;;;;;;;4994189;28;20084;-82
2022/04/19 14:15:01;;;;;;;5.13;3.33;;;;;;;;;;4977876;28;20078;-81
2022/04/19 14:17:27;;;;;;;6.38;3.60;;;;;;;;;;4977810;28;20096;-78
2022/04/19 14:19:53;;;;;;;5.45;2.88;;;;;;;;;;4993751;28;20046;-75
2022/04/19 14:22:19;;;;;;;4.78;3.10;;;;;;;;;;4977524;28;20133;-85
2022/04/19 14:24:45;;;;;;;6.47;2.97;;;;;;;;;;4993487;28;20090;-83
2022/04/19 14:27:11;;;;;;;4.65;2.60;;;;;;;;;;4993851;28;20081;-81
2022/04/19 14:35:06;;;;;;;4.70;3.00;;;;;;;;;;4993829;28;20046;-80
2022/04/19 14:37:32;;;;;;;6.30;3.40;;;;;;;;;;4977462;28;20050;-81
2022/04/19 14:40:00;;;;;;;6.22;3.25;;;;;;;;;;4977188;28;20085;-82
2022/04/19 14:42:29;;;;;;;8.25;3.55;;;;;;;;;;4977059;28;20077;-80
2022/04/19 14:44:55;;;;;;;4.68;2.92;;;;;;;;;;4993227;28;20069;-85
2022/04/19 14:47:21;;;;;;;5.75;3.15;;;;;;;;;;4977009;28;20054;-79
2022/04/19 14:49:47;;;;;;;6.20;3.05;;;;;;;;;;4977020;28;20034;-80
2022/04/19 14:52:18;;;;;;;6.25;3.17;;;;;;;;;;4993514;28;20042;-82
2022/04/19 14:54:44;;;;;;;6.85;3.35;;;;;;;;;;4993171;28;20096;-80
2022/04/19 14:57:10;;;;;;;4.00;2.40;;;;;;;;;;4994170;28;20077;-82
2022/04/19 14:59:36;;;;;;;3.95;1.88;;;;;;;;;;4977986;28;20042;-80
2022/04/19 15:02:04;;;;;;;6.70;2.40;;;;;;;;;;4977564;28;20482;-80
2022/04/19 15:04:30;;;;;;;5.47;3.20;;;;;;;;;;4977726;28;20154;-80
2022/04/19 15:06:56;;;;;;;7.25;1.88;;;;;;;;;;4995950;28;20088;-81
2022/04/19 15:09:22;;;;;;;2.78;2.45;;;;;;;;;;4997369;28;20044;-82
2022/04/19 15:11:48;;;;;;;4.68;2.65;;;;;;;;;;5013440;28;20410;-80
2022/04/19 15:14:14;;;;;;;4.78;3.30;;;;;;;;;;4997357;28;20038;-82
2022/04/19 15:16:40;;;;;;;5.60;3.38;;;;;;;;;;4997515;28;20450;-81
2022/04/19 15:19:06;;;;;;;5.07;2.90;;;;;;;;;;4996657;28;20516;-81
2022/04/19 15:21:34;;;;;;;6.47;2.90;;;;;;;;;;5012964;28;20402;-80
2022/04/19 15:24:00;;;;;;;3.80;2.60;;;;;;;;;;4997082;28;20129;-76
2022/04/19 15:26:26;;;;;;;5.82;2.85;;;;;;;;;;5013312;28;20065;-81